Time;durP1;ratioP1;P1;durP2;ratioP2;P2;SDS_P1;SDS_P2;PMS_P1;PMS_P2;Temp;Humidity;BMP_temperature;BMP_pressure;BME280_temperature;BME280_humidity;BME280_pressure;Samples;Min_cycle;Max_cycle;Signal;HPM_P1;HPM_P2
2022/03/10 00:01:55;;;;;;;;;38.25;32.50;;;;;10.23;100.00;101394.22;5128634;27;45493;-77
2022/03/10 00:04:21;;;;;;;;;37.00;32.50;;;;;10.51;100.00;101447.09;5119314;27;45207;-77
2022/03/10 00:06:46;;;;;;;;;31.00;27.25;;;;;10.84;100.00;101501.44;5109408;27;45542;-78
2022/03/10 00:09:11;;;;;;;;;38.50;31.25;;;;;10.85;100.00;101505.94;5109145;27;45351;-77
2022/03/10 00:11:37;;;;;;;;;32.00;29.25;;;;;9.57;100.00;101285.59;5126217;27;45404;-77
2022/03/10 00:14:02;;;;;;;;;39.25;34.00;;;;;9.09;100.00;101203.19;5122875;27;45249;-77
2022/03/10 00:16:27;;;;;;;;;39.25;32.00;;;;;10.82;100.00;101500.66;5123933;27;45256;-77
2022/03/10 00:18:53;;;;;;;;;34.00;30.25;;;;;9.89;100.00;101346.31;5120500;27;45285;-77
2022/03/10 00:21:19;;;;;;;;;36.00;30.50;;;;;10.73;100.00;101484.84;5123215;27;45142;-77
2022/03/10 00:23:44;;;;;;;;;38.50;30.25;;;;;10.07;100.00;101396.03;5128559;27;45312;-77
2022/03/10 00:26:10;;;;;;;;;39.25;34.50;;;;;10.52;100.00;101466.03;5115175;27;45259;-76
2022/03/10 00:28:35;;;;;;;;;33.25;29.00;;;;;10.47;100.00;101449.09;5113617;27;45540;-77
2022/03/10 00:31:00;;;;;;;;;40.50;35.00;;;;;10.77;100.00;101500.03;5123033;27;45132;-76
2022/03/10 00:33:26;;;;;;;;;39.25;33.00;;;;;10.75;100.00;101499.25;5129429;27;45145;-77
2022/03/10 00:35:51;;;;;;;;;38.75;30.00;;;;;9.62;100.00;101316.09;5126991;27;45272;-78
2022/03/10 00:38:17;;;;;;;;;32.50;31.75;;;;;10.57;100.00;101482.97;5119226;27;45084;-76
2022/03/10 00:40:43;;;;;;;;;33.50;28.00;;;;;10.71;100.00;101509.41;5127935;27;45580;-77
2022/03/10 00:43:13;;;;;;;;;31.00;27.25;;;;;10.36;100.00;101459.69;5125037;27;45122;-77
2022/03/10 00:45:39;;;;;;;;;39.00;32.00;;;;;10.57;100.00;101495.69;5126724;27;45095;-77
2022/03/10 00:48:04;;;;;;;;;35.50;30.50;;;;;10.68;100.00;101509.56;5125939;27;45300;-77
2022/03/10 00:50:30;;;;;;;;;39.75;34.25;;;;;10.68;100.00;101512.28;5129184;27;45549;-77
2022/03/10 00:52:55;;;;;;;;;21.25;19.75;;;;;10.67;100.00;101513.25;5118068;27;45035;-77
2022/03/10 00:55:22;;;;;;;;;34.00;29.75;;;;;10.67;100.00;101518.69;5111154;27;45043;-77
2022/03/10 00:57:49;;;;;;;;;39.25;33.25;;;;;10.57;100.00;101501.13;5128752;27;45062;-77
2022/03/10 01:00:15;;;;;;;;;35.75;33.50;;;;;9.99;100.00;101398.31;5126171;27;45619;-80
2022/03/10 01:02:41;;;;;;;;;33.25;32.25;;;;;10.63;100.00;101514.38;5120589;27;45263;-78
2022/03/10 01:05:08;;;;;;;;;36.25;32.50;;;;;10.62;100.00;101513.50;5131007;27;45226;-80
2022/03/10 01:07:34;;;;;;;;;40.00;32.50;;;;;10.37;100.00;101461.44;5116726;27;44969;-78
2022/03/10 01:10:00;;;;;;;;;37.50;32.00;;;;;9.79;100.00;101378.53;5108103;27;45055;-80
2022/03/10 01:12:26;;;;;;;;;36.25;33.00;;;;;10.59;100.00;101512.78;5119239;27;45034;-81
2022/03/10 01:14:52;;;;;;;;;31.25;25.75;;;;;10.52;100.00;101514.09;5111099;27;45247;-77
2022/03/10 01:17:18;;;;;;;;;32.25;29.50;;;;;10.55;100.00;101512.09;5122337;27;45364;-76
2022/03/10 01:19:44;;;;;;;;;42.00;35.00;;;;;10.33;100.00;101478.88;5125052;27;45273;-77
2022/03/10 01:22:09;;;;;;;;;41.25;31.25;;;;;10.54;100.00;101515.78;5118680;27;45109;-77
2022/03/10 01:24:35;;;;;;;;;36.50;29.25;;;;;10.54;100.00;101515.78;5128341;27;45509;-77
2022/03/10 01:27:00;;;;;;;;;31.50;29.00;;;;;10.54;100.00;101515.78;5128302;27;45180;-76
2022/03/10 01:29:25;;;;;;;;;32.25;31.00;;;;;10.54;100.00;101513.06;5124905;27;46911;-76
2022/03/10 01:31:51;;;;;;;;;35.50;29.00;;;;;9.99;100.00;101414.59;5116355;27;45159;-77
2022/03/10 01:34:16;;;;;;;;;35.25;31.00;;;;;10.42;100.00;101480.22;5116297;27;45553;-76
2022/03/10 01:36:42;;;;;;;;;30.50;27.75;;;;;10.27;100.00;101455.63;5109893;27;45261;-77
2022/03/10 01:39:07;;;;;;;;;36.50;33.50;;;;;10.46;100.00;101492.69;5126237;27;45845;-76
2022/03/10 01:41:33;;;;;;;;;31.50;29.25;;;;;9.53;100.00;101352.78;5117469;27;45158;-77
2022/03/10 01:44:05;;;;;;;;;29.00;27.25;;;;;10.32;100.00;101468.97;5127115;27;45005;-76
2022/03/10 01:46:30;;;;;;;;;31.00;25.75;;;;;10.48;100.00;101504.34;5113533;27;45329;-77
2022/03/10 01:48:56;;;;;;;;;28.50;27.00;;;;;10.48;100.00;101493.47;5120037;27;45722;-78
2022/03/10 01:51:23;;;;;;;;;29.50;25.00;;;;;10.17;100.00;101445.31;5124963;27;45237;-77
2022/03/10 01:53:50;;;;;;;;;30.75;27.75;;;;;9.02;100.00;101258.69;5129713;27;45035;-79
2022/03/10 01:56:17;;;;;;;;;32.75;30.25;;;;;10.47;100.00;101494.44;5124207;27;45646;-78
2022/03/10 01:58:43;;;;;;;;;35.50;31.50;;;;;10.46;100.00;101492.69;5126584;27;45303;-78
2022/03/10 02:01:10;;;;;;;;;32.50;27.75;;;;;9.04;100.00;101262.22;5129433;27;45176;-78
2022/03/10 02:03:36;;;;;;;;;34.50;27.50;;;;;8.89;100.00;101239.50;5112922;27;45250;-77
2022/03/10 02:06:01;;;;;;;;;33.25;28.00;;;;;10.21;100.00;101460.50;5109767;27;45412;-77
2022/03/10 02:11:11;;;;;;;;;45.25;36.00;;;;;9.85;100.00;101390.91;5122663;27;45199;-77
2022/03/10 02:13:37;;;;;;;;;37.75;31.00;;;;;9.78;100.00;101384.03;5117399;27;44973;-77
2022/03/10 02:18:46;;;;;;;;;28.25;27.25;;;;;10.17;100.00;101446.19;5113387;27;45249;-78
2022/03/10 02:21:11;;;;;;;;;31.25;27.75;;;;;10.39;100.00;101495.75;5111421;27;45462;-78
2022/03/10 02:23:37;;;;;;;;;40.25;30.25;;;;;10.16;100.00;101451.72;5130504;27;45205;-77
2022/03/10 02:26:02;;;;;;;;;36.00;31.75;;;;;10.38;100.00;101495.81;5130155;27;45575;-78
2022/03/10 02:28:28;;;;;;;;;31.75;30.25;;;;;9.58;100.00;101352.53;5122642;27;45248;-76
2022/03/10 02:30:54;;;;;;;;;29.75;28.00;;;;;9.27;100.00;101307.13;5113239;27;45174;-76
2022/03/10 02:33:20;;;;;;;;;39.75;32.25;;;;;9.45;100.00;101330.56;5130104;27;45015;-78
2022/03/10 02:35:46;;;;;;;;;38.50;31.00;;;;;8.96;100.00;101261.75;5130847;27;45046;-77
2022/03/10 02:38:17;;;;;;;;;41.75;31.25;;;;;9.35;100.00;101338.31;5123516;27;45057;-78
2022/03/10 02:40:47;;;;;;;;;38.25;30.50;;;;;10.33;100.00;101492.47;5129462;27;45241;-77
2022/03/10 02:43:12;;;;;;;;;30.75;30.00;;;;;9.44;100.00;101341.53;5130780;27;45422;-77
2022/03/10 02:45:37;;;;;;;;;33.00;28.75;;;;;8.79;100.00;101243.66;5116903;27;45213;-78
2022/03/10 02:48:03;;;;;;;;;29.25;25.00;;;;;10.32;100.00;101502.47;5125052;27;45548;-78
2022/03/10 02:50:29;;;;;;;;;27.50;23.25;;;;;10.32;100.00;101512.47;5124893;27;45384;-76
2022/03/10 02:52:54;;;;;;;;;33.50;29.50;;;;;10.17;100.00;101467.94;5119201;27;45103;-76
2022/03/10 02:55:21;;;;;;;;;33.25;30.50;;;;;10.29;100.00;101497.22;5110936;27;45111;-77
2022/03/10 02:57:47;;;;;;;;;35.50;29.25;;;;;10.20;100.00;101481.38;5128659;27;46390;-77
2022/03/10 03:00:16;;;;;;;;;32.50;29.50;;;;;9.99;100.00;101468.94;5115639;27;45193;-76
2022/03/10 03:02:41;;;;;;;;;37.75;29.25;;;;;9.81;100.00;101430.91;5119516;27;45189;-77
2022/03/10 03:05:08;;;;;;;;;31.00;29.75;;;;;8.69;100.00;101245.94;5112927;27;45066;-79
2022/03/10 03:07:34;;;;;;;;;34.50;29.75;;;;;10.24;100.00;101509.25;5122720;27;45216;-79
2022/03/10 03:10:00;;;;;;;;;35.25;30.00;;;;;9.56;100.00;101393.31;5126457;27;45065;-80
2022/03/10 03:12:26;;;;;;;;;31.50;27.50;;;;;10.11;100.00;101479.13;5124722;27;45174;-80
2022/03/10 03:14:52;;;;;;;;;1.00;0.00;;;;;9.90;100.00;101462.16;5131108;27;45135;-81
2022/03/10 03:17:18;;;;;;;;;37.75;29.00;;;;;10.20;100.00;101508.53;5129017;27;45079;-80
2022/03/10 03:19:43;;;;;;;;;26.50;24.50;;;;;10.21;100.00;101513.00;5125985;27;45234;-77
2022/03/10 03:22:08;;;;;;;;;33.50;29.50;;;;;10.21;100.00;101517.56;5120998;27;45131;-77
2022/03/10 03:24:34;;;;;;;;;37.75;29.50;;;;;9.95;100.00;101475.47;5129649;27;45156;-80
2022/03/10 03:27:00;;;;;;;;;30.75;30.25;;;;;10.19;100.00;101519.47;5126321;27;45583;-80
2022/03/10 03:29:26;;;;;;;;;32.00;26.75;;;;;8.55;100.00;101249.34;5128974;27;45216;-80
2022/03/10 03:31:51;;;;;;;;;27.25;22.75;;;;;10.17;100.00;101518.69;5124226;27;44986;-79
2022/03/10 03:34:16;;;;;;;;;31.75;24.75;;;;;8.33;100.00;101217.03;5110284;27;45401;-77
2022/03/10 03:36:44;;;;;;;;;36.00;30.00;;;;;10.14;100.00;101522.47;5100087;27;45913;-77
2022/03/10 03:39:11;;;;;;;;;31.75;26.00;;;;;8.98;100.00;101342.06;5106732;27;45381;-78
2022/03/10 03:41:37;;;;;;;;;42.25;32.00;;;;;9.62;100.00;101440.97;5099904;27;45178;-78
2022/03/10 03:44:03;;;;;;;;;28.50;25.75;;;;;8.64;100.00;101274.25;5107264;27;45505;-77
2022/03/10 03:46:29;;;;;;;;;33.25;26.50;;;;;8.69;100.00;101283.03;5105408;27;45061;-77
2022/03/10 03:48:55;;;;;;;;;31.75;25.25;;;;;10.06;100.00;101519.25;5087240;27;45110;-78
2022/03/10 03:51:21;;;;;;;;;35.75;32.75;;;;;9.25;100.00;101385.00;5109194;27;45118;-77
2022/03/10 03:53:47;;;;;;;;;30.75;29.25;;;;;10.06;100.00;101520.13;5109237;27;45289;-78
2022/03/10 03:56:13;;;;;;;;;33.25;29.50;;;;;9.71;100.00;101461.34;5100187;27;45087;-78
2022/03/10 03:58:38;;;;;;;;;37.00;29.00;;;;;10.04;100.00;101529.34;5101584;27;45482;-78
2022/03/10 04:01:03;;;;;;;;;30.25;29.50;;;;;8.54;100.00;101277.41;5083219;28;45230;-78
2022/03/10 04:03:29;;;;;;;;;33.75;26.50;;;;;10.03;100.00;101525.72;5106485;27;45169;-79
2022/03/10 04:05:54;;;;;;;;;40.00;27.75;;;;;10.03;100.00;101535.69;5084432;28;47466;-77
2022/03/10 04:08:21;;;;;;;;;26.00;24.50;;;;;9.02;100.00;101356.34;5100176;27;46464;-77
2022/03/10 04:10:46;;;;;;;;;30.25;26.00;;;;;10.00;100.00;101535.88;5097261;27;45154;-77
2022/03/10 04:13:12;;;;;;;;;33.25;28.50;;;;;9.91;100.00;101518.22;5109464;27;45172;-77
2022/03/10 04:15:37;;;;;;;;;33.25;27.00;;;;;9.25;100.00;101401.28;5108431;27;45332;-79
2022/03/10 04:18:03;;;;;;;;;29.00;28.25;;;;;9.95;100.00;101532.53;5108571;27;44983;-77
2022/03/10 04:20:28;;;;;;;;;32.75;30.50;;;;;9.93;100.00;101542.56;5106123;27;45450;-78
2022/03/10 04:22:54;;;;;;;;;29.75;25.50;;;;;8.35;100.00;101268.41;5103851;27;45370;-78
2022/03/10 04:25:19;;;;;;;;;33.50;28.50;;;;;9.02;100.00;101388.88;5079932;27;47521;-78
2022/03/10 04:27:49;;;;;;;;;31.25;27.00;;;;;9.69;100.00;101504.00;5103823;27;44977;-77
2022/03/10 04:30:14;;;;;;;;;27.50;27.00;;;;;8.83;100.00;101370.84;5107600;27;45441;-77
2022/03/10 04:32:46;;;;;;;;;30.25;25.00;;;;;7.98;100.00;101213.34;5109152;27;45240;-78
2022/03/10 04:35:14;;;;;;;;;27.00;25.00;;;;;9.85;100.00;101546.56;5116474;27;45977;-77
2022/03/10 04:37:39;;;;;;;;;30.50;28.00;;;;;9.64;100.00;101500.66;5113939;27;45275;-78
2022/03/10 04:40:06;;;;;;;;;33.25;29.50;;;;;8.69;100.00;101364.34;5128797;27;45139;-77
2022/03/10 04:42:36;;;;;;;;;32.75;28.25;;;;;9.61;100.00;101523.38;5118086;27;45440;-77
2022/03/10 04:45:02;;;;;;;;;33.00;28.00;;;;;8.69;100.00;101350.78;5121130;27;45203;-77
2022/03/10 04:47:28;;;;;;;;;32.00;26.75;;;;;9.22;100.00;101450.28;5123689;27;45200;-77
2022/03/10 04:49:53;;;;;;;;;28.25;28.00;;;;;9.72;100.00;101525.53;5121076;27;45115;-77
2022/03/10 04:52:18;;;;;;;;;36.00;27.25;;;;;9.77;100.00;101546.06;5128587;27;45007;-77
2022/03/10 04:54:44;;;;;;;;;28.75;26.00;;;;;9.10;100.00;101430.94;5126900;27;47220;-78
2022/03/10 04:57:09;;;;;;;;;34.50;27.00;;;;;9.74;100.00;101548.97;5114704;27;45129;-77
2022/03/10 04:59:34;;;;;;;;;31.25;27.50;;;;;9.72;100.00;101559.00;5128012;27;45083;-77
2022/03/10 05:02:00;;;;;;;;;36.50;29.00;;;;;9.67;100.00;101535.75;5125267;27;45531;-78
2022/03/10 05:04:25;;;;;;;;;35.00;30.00;;;;;9.69;100.00;101545.59;5129014;27;46292;-80
2022/03/10 05:06:50;;;;;;;;;30.75;26.50;;;;;9.53;100.00;101517.44;5126296;27;45192;-80
2022/03/10 05:09:16;;;;;;;;;34.00;28.00;;;;;9.68;100.00;101540.22;5118640;27;45047;-79
2022/03/10 05:11:41;;;;;;;;;35.75;33.25;;;;;8.65;100.00;101365.44;5116641;27;45320;-79
2022/03/10 05:14:07;;;;;;;;;38.75;30.25;;;;;9.66;100.00;101542.16;5106088;27;46036;-79
2022/03/10 05:16:33;;;;;;;;;37.50;30.50;;;;;9.66;100.00;101542.16;5107437;27;45486;-78
2022/03/10 05:18:59;;;;;;;;;31.00;28.25;;;;;8.83;100.00;101402.50;5107821;27;45606;-78
2022/03/10 05:21:24;;;;;;;;;28.00;27.50;;;;;8.48;100.00;101344.59;5112060;27;45612;-80
2022/03/10 05:23:52;;;;;;;;;20.50;19.00;;;;;9.36;100.00;101497.47;5114941;27;45602;-79
2022/03/10 05:26:18;;;;;;;;;36.75;30.50;;;;;9.34;100.00;101496.69;5122156;27;45358;-79
2022/03/10 05:28:43;;;;;;;;;36.00;34.00;;;;;8.41;100.00;101362.09;5126600;27;45843;-80
2022/03/10 05:31:09;;;;;;;;;36.50;30.25;;;;;9.56;100.00;101544.44;5124885;27;45315;-80
2022/03/10 05:33:34;;;;;;;;;31.50;29.25;;;;;8.79;100.00;101406.31;5120203;27;45244;-76
2022/03/10 05:35:59;;;;;;;;;33.50;30.00;;;;;9.51;100.00;101533.81;5117695;27;45208;-76
2022/03/10 05:38:25;;;;;;;;;36.00;30.50;;;;;9.29;100.00;101506.00;5127690;27;45189;-77
2022/03/10 05:40:50;;;;;;;;;29.25;28.25;;;;;7.66;100.00;101219.44;5129436;27;45301;-76
2022/03/10 05:43:16;;;;;;;;;26.50;25.50;;;;;8.14;100.00;101324.50;5127668;27;46306;-77
2022/03/10 05:45:41;;;;;;;;;26.25;25.50;;;;;8.69;100.00;101411.31;5121593;27;45461;-76
2022/03/10 05:48:07;;;;;;;;;32.25;29.00;;;;;9.47;100.00;101551.22;5109798;27;45273;-76
2022/03/10 05:50:32;;;;;;;;;35.50;33.25;;;;;8.17;100.00;101326.22;5110274;27;45238;-76
2022/03/10 05:52:57;;;;;;;;;27.25;26.75;;;;;9.02;100.00;101464.81;5119100;27;46243;-77
2022/03/10 05:55:23;;;;;;;;;37.75;30.50;;;;;7.68;100.00;101247.31;5127005;27;45054;-77
2022/03/10 05:57:49;;;;;;;;;27.25;27.25;;;;;8.74;100.00;101438.19;5120925;27;45264;-76
2022/03/10 06:00:15;;;;;;;;;26.00;24.75;;;;;9.39;100.00;101541.72;5113987;27;45249;-77
2022/03/10 06:02:41;;;;;;;;;33.25;29.75;;;;;7.78;100.00;101278.41;5119156;27;45748;-77
2022/03/10 06:05:10;;;;;;;;;35.50;31.50;;;;;8.99;100.00;101478.56;5116394;27;45222;-77
2022/03/10 06:07:35;;;;;;;;;32.50;31.00;;;;;9.35;100.00;101554.53;5133275;27;45239;-77
2022/03/10 06:10:03;;;;;;;;;32.50;31.25;;;;;7.89;100.00;101310.38;5132898;27;45142;-78
2022/03/10 06:12:28;;;;;;;;;42.50;32.75;;;;;9.24;100.00;101532.50;5129791;27;45144;-78
2022/03/10 06:15:01;;;;;;;;;29.75;27.75;;;;;9.30;100.00;101540.31;5128017;27;45240;-77
2022/03/10 06:17:27;;;;;;;;;40.25;32.50;;;;;8.38;100.00;101397.47;5123926;27;45491;-78
2022/03/10 06:19:53;;;;;;;;;28.75;27.00;;;;;9.12;100.00;101517.66;5131987;27;45311;-78
2022/03/10 06:22:20;;;;;;;;;35.50;29.25;;;;;9.01;100.00;101499.19;5123923;27;46704;-78
2022/03/10 06:24:46;;;;;;;;;38.00;32.00;;;;;9.02;100.00;101506.41;5129636;27;45489;-78
2022/03/10 06:27:13;;;;;;;;;33.00;31.75;;;;;8.87;100.00;101489.97;5129181;27;45098;-78
2022/03/10 06:29:39;;;;;;;;;35.50;31.25;;;;;9.01;100.00;101504.63;5111625;27;45150;-78
2022/03/10 06:32:05;;;;;;;;;34.00;30.75;;;;;9.25;100.00;101553.22;5124175;27;45644;-78
2022/03/10 06:34:31;;;;;;;;;30.00;30.00;;;;;8.83;100.00;101500.97;5123521;27;45286;-77
2022/03/10 06:36:57;;;;;;;;;35.00;33.00;;;;;8.23;100.00;101386.38;5116207;27;45122;-78
2022/03/10 06:39:23;;;;;;;;;35.50;32.25;;;;;9.21;100.00;101557.91;5122985;27;45480;-78
2022/03/10 06:41:48;;;;;;;;;34.75;31.75;;;;;8.93;100.00;101508.69;5115364;27;45543;-77
2022/03/10 06:44:14;;;;;;;;;30.75;29.75;;;;;8.84;100.00;101494.59;5129164;27;45270;-79
2022/03/10 06:46:39;;;;;;;;;40.50;37.00;;;;;9.15;100.00;101546.50;5129036;27;45240;-78
2022/03/10 06:49:05;;;;;;;;;32.00;31.75;;;;;9.20;100.00;101558.00;5107621;27;45292;-77
2022/03/10 06:51:31;;;;;;;;;41.75;35.50;;;;;9.17;100.00;101561.72;5113203;27;46565;-78
2022/03/10 06:53:59;;;;;;;;;34.75;32.75;;;;;9.17;100.00;101560.84;5123566;27;45160;-77
2022/03/10 06:56:25;;;;;;;;;31.50;29.00;;;;;9.09;100.00;101553.09;5110313;27;45267;-77
2022/03/10 06:58:51;;;;;;;;;39.00;33.75;;;;;8.65;100.00;101468.44;5113844;27;45326;-78
2022/03/10 07:01:17;;;;;;;;;37.25;33.25;;;;;8.30;100.00;101420.34;5119594;27;45252;-77
2022/03/10 07:03:42;;;;;;;;;38.25;33.00;;;;;9.16;100.00;101562.69;5128737;27;45482;-78
2022/03/10 07:06:08;;;;;;;;;34.75;31.00;;;;;9.04;100.00;101542.47;5127739;27;45466;-80
2022/03/10 07:08:34;;;;;;;;;38.75;32.75;;;;;8.65;100.00;101499.13;5127216;27;44858;-80
2022/03/10 07:10:59;;;;;;;;;33.50;33.50;;;;;8.68;100.00;101485.44;5121597;27;45567;-80
2022/03/10 07:13:24;;;;;;;;;34.00;29.75;;;;;9.17;100.00;101572.56;5113293;27;45221;-80
2022/03/10 07:15:50;;;;;;;;;44.75;36.50;;;;;8.83;100.00;101521.81;5123906;27;45525;-80
2022/03/10 07:18:15;;;;;;;;;34.50;31.25;;;;;9.17;100.00;101583.44;5123975;27;45426;-78
2022/03/10 07:20:41;;;;;;;;;38.25;34.25;;;;;9.17;100.00;101588.84;5122314;27;45408;-79
2022/03/10 07:23:06;;;;;;;;;35.75;31.25;;;;;8.73;100.00;101513.22;5110147;27;45332;-80
2022/03/10 07:25:32;;;;;;;;;36.00;34.50;;;;;9.18;100.00;101587.06;5112988;27;45133;-79
2022/03/10 07:27:57;;;;;;;;;44.00;37.75;;;;;9.18;100.00;101598.78;5127339;27;45850;-78
2022/03/10 07:30:23;;;;;;;;;51.00;37.50;;;;;9.00;100.00;101559.84;5126674;27;46462;-78
2022/03/10 07:32:48;;;;;;;;;42.50;34.25;;;;;8.62;100.00;101487.56;5109034;27;45451;-76
2022/03/10 07:35:14;;;;;;;;;45.75;36.50;;;;;9.04;100.00;101566.00;5103643;27;45268;-77
2022/03/10 07:37:39;;;;;;;;;33.25;31.25;;;;;8.77;100.00;101514.84;5109078;27;45186;-76
2022/03/10 07:40:05;;;;;;;;;36.50;32.00;;;;;9.22;100.00;101584.09;5087394;27;46691;-78
2022/03/10 07:42:31;;;;;;;;;38.25;33.00;;;;;8.49;100.00;101471.00;5107283;27;45153;-77
2022/03/10 07:44:56;;;;;;;;;42.50;32.75;;;;;7.21;100.00;101253.97;5100555;27;45170;-77
2022/03/10 07:47:21;;;;;;;;;40.25;31.25;;;;;8.81;100.00;101508.28;5100846;27;45349;-78
2022/03/10 07:49:47;;;;;;;;;29.50;27.75;;;;;9.00;100.00;101538.13;5096788;27;45291;-76
2022/03/10 07:52:12;;;;;;;;;28.50;26.25;;;;;9.02;100.00;101536.25;5104075;27;45267;-76
2022/03/10 07:54:38;;;;;;;;;32.50;28.75;;;;;9.35;100.00;101589.81;5099810;27;45443;-77
2022/03/10 07:57:04;;;;;;;;;39.00;35.50;;;;;9.35;100.00;101593.41;5109217;27;45244;-76
2022/03/10 07:59:29;;;;;;;;;39.50;34.00;;;;;9.16;100.00;101554.53;5098627;27;45851;-76
2022/03/10 08:01:55;;;;;;;;;40.00;33.25;;;;;9.06;100.00;101534.25;5094754;27;45412;-77
2022/03/10 08:04:20;;;;;;;;;35.50;31.25;;;;;9.00;100.00;101521.84;5092997;27;45345;-76
2022/03/10 08:06:46;;;;;;;;;38.75;33.75;;;;;9.06;100.00;101532.41;5100052;27;45370;-76
2022/03/10 08:09:12;;;;;;;;;38.75;31.00;;;;;9.04;100.00;101519.88;5106923;27;44995;-76
2022/03/10 08:11:39;;;;;;;;;32.75;25.25;;;;;9.08;100.00;101530.53;5106389;27;45260;-78
2022/03/10 08:14:04;;;;;;;;;36.00;30.75;;;;;9.50;100.00;101586.34;5105816;27;45203;-77
2022/03/10 08:16:31;;;;;;;;;41.00;35.75;;;;;9.54;100.00;101587.97;5094660;27;45244;-76
2022/03/10 08:18:56;;;;;;;;;32.50;28.75;;;;;9.01;100.00;101495.63;5108370;27;45414;-77
2022/03/10 08:21:21;;;;;;;;;33.25;31.75;;;;;9.15;100.00;101503.97;5107996;27;45304;-77
2022/03/10 08:23:47;;;;;;;;;29.00;25.00;;;;;9.22;100.00;101507.25;5079301;28;45194;-77
2022/03/10 08:26:13;;;;;;;;;33.25;31.00;;;;;9.69;100.00;101586.34;5104391;27;45053;-75
2022/03/10 08:28:39;;;;;;;;;31.00;25.75;;;;;9.75;100.00;101585.16;5106909;27;45829;-78
2022/03/10 08:31:04;;;;;;;;;33.75;31.00;;;;;9.44;100.00;101534.22;5108214;27;45595;-77
2022/03/10 08:33:33;;;;;;;;;32.00;28.75;;;;;9.81;100.00;101588.41;5112325;27;45393;-77
2022/03/10 08:35:58;;;;;;;;;37.25;29.75;;;;;9.40;100.00;101502.75;5122185;27;45912;-78
2022/03/10 08:38:25;;;;;;;;;38.50;30.50;;;;;9.88;100.00;101576.31;5104582;27;46920;-77
2022/03/10 08:40:51;;;;;;;;;30.50;29.00;;;;;9.75;100.00;101548.00;5121815;27;45039;-78
2022/03/10 08:43:17;;;;;;;;;31.75;28.00;;;;;9.35;100.00;101484.84;5127156;27;45618;-77
2022/03/10 08:45:42;;;;;;;;;41.00;31.25;;;;;8.93;100.00;101392.94;5111274;27;45398;-76
2022/03/10 08:48:08;;;;;;;;;32.50;29.00;;;;;9.66;100.00;101509.56;5118130;27;45982;-78
2022/03/10 08:50:35;;;;;;;;;35.50;29.75;;;;;9.37;100.00;101452.22;5113241;27;45949;-77
2022/03/10 08:53:00;;;;;;;;;37.00;33.25;;;;;10.11;100.00;101579.66;5118401;27;45384;-76
2022/03/10 08:55:26;;;;;;;;;32.75;28.75;;;;;9.31;100.00;101437.13;5113723;27;45240;-77
2022/03/10 08:57:51;;;;;;;;;28.25;25.75;;;;;10.18;100.00;101569.34;5116332;27;45972;-76
2022/03/10 09:00:20;;;;;;;;;30.50;28.25;;;;;9.28;100.00;101429.16;5115540;27;45138;-77
2022/03/10 09:02:45;;;;;;;;;34.25;28.75;;;;;9.99;100.00;101523.25;5120435;27;45086;-77
2022/03/10 09:05:11;;;;;;;;;29.75;27.50;;;;;9.27;100.00;101408.38;5118492;27;45158;-78
2022/03/10 09:07:37;;;;;;;;;32.25;31.00;;;;;10.31;100.00;101568.66;5129142;27;45794;-76
2022/03/10 09:10:04;;;;;;;;;33.50;32.25;;;;;9.75;100.00;101465.66;5116775;27;45256;-78
2022/03/10 09:12:30;;;;;;;;;30.00;30.00;;;;;9.94;100.00;101492.75;5133212;27;45551;-78
2022/03/10 09:14:56;;;;;;;;;38.25;33.00;;;;;10.41;100.00;101566.34;5113558;27;44995;-77
2022/03/10 09:17:21;;;;;;;;;33.50;28.25;;;;;9.15;100.00;101354.75;5110775;27;45946;-76
2022/03/10 09:19:49;;;;;;;;;30.00;28.00;;;;;9.66;100.00;101431.72;5114404;27;45284;-77
2022/03/10 09:22:15;;;;;;;;;34.75;28.25;;;;;10.52;100.00;101563.91;5122770;27;45436;-79
2022/03/10 09:24:40;;;;;;;;;28.75;22.25;;;;;10.21;100.00;101510.28;5131283;27;45466;-77
2022/03/10 09:27:07;;;;;;;;;30.00;27.50;;;;;10.58;100.00;101570.84;5128749;27;45305;-78
2022/03/10 09:29:32;;;;;;;;;31.75;30.00;;;;;9.38;100.00;101374.38;5126377;27;45371;-78
2022/03/10 09:31:57;;;;;;;;;26.50;24.25;;;;;10.64;100.00;101557.84;5122920;27;45322;-78
2022/03/10 09:34:23;;;;;;;;;31.50;25.50;;;;;10.68;100.00;101565.81;5125661;27;45503;-78
2022/03/10 09:36:49;;;;;;;;;32.50;31.50;;;;;10.71;100.00;101562.94;5134746;27;46753;-77
2022/03/10 09:39:15;;;;;;;;;33.75;27.00;;;;;9.96;100.00;101429.22;5113988;27;45044;-76
2022/03/10 09:41:41;;;;;;;;;32.25;28.75;;;;;10.72;100.00;101548.38;5121324;27;45375;-78
2022/03/10 09:44:15;;;;;;;;;30.25;25.25;;;;;10.49;100.00;101495.22;5126845;27;45688;-76
2022/03/10 09:46:41;;;;;;;;;33.25;27.00;;;;;10.87;100.00;101558.41;5110620;27;45578;-78
2022/03/10 09:49:07;;;;;;;;;30.00;24.25;;;;;10.90;100.00;101559.13;5109818;27;45334;-79
2022/03/10 09:51:32;;;;;;;;;29.25;23.50;;;;;10.96;100.00;101549.72;5123922;27;45123;-77
2022/03/10 09:53:58;;;;;;;;;22.25;21.00;;;;;10.03;100.00;101394.44;5111888;27;44985;-79
2022/03/10 09:56:26;;;;;;;;;29.50;28.00;;;;;9.65;100.00;101326.81;5122175;27;45169;-77
2022/03/10 09:58:51;;;;;;;;;33.25;28.50;;;;;9.82;100.00;101348.47;5124830;27;45298;-78
2022/03/10 10:01:16;;;;;;;;;34.75;26.50;;;;;10.75;100.00;101496.53;5109929;27;45831;-77
2022/03/10 10:03:42;;;;;;;;;31.50;26.75;;;;;11.11;100.00;101548.00;5110819;27;45266;-75
2022/03/10 10:06:07;;;;;;;;;27.75;27.50;;;;;11.14;100.00;101550.53;5109845;27;45360;-77
2022/03/10 10:08:34;;;;;;;;;37.00;27.25;;;;;11.16;100.00;101557.66;5108784;27;45323;-76
2022/03/10 10:11:01;;;;;;;;;27.75;24.25;;;;;11.21;100.00;101551.06;5109151;27;45382;-77
2022/03/10 10:13:27;;;;;;;;;37.75;31.00;;;;;11.08;100.00;101515.50;5115540;27;45139;-78
2022/03/10 10:16:04;;;;;;;;;34.25;26.75;;;;;10.82;100.00;101474.31;5128004;27;45435;-78
2022/03/10 10:18:31;;;;;;;;;28.00;25.50;;;;;10.38;100.00;101382.53;5128047;27;45577;-78
2022/03/10 10:20:57;;;;;;;;;30.75;26.00;;;;;11.00;100.00;101485.13;5127696;27;45040;-78
2022/03/10 10:23:25;;;;;;;;;30.00;24.00;;;;;10.43;100.00;101382.28;5130069;27;45549;-78
2022/03/10 10:25:53;;;;;;;;;31.00;27.75;;;;;11.24;100.00;101513.66;5116847;27;46009;-76
2022/03/10 10:28:23;;;;;;;;;29.00;26.25;;;;;11.21;100.00;101497.50;5109195;27;45205;-77
2022/03/10 10:30:56;;;;;;;;;28.25;27.00;;;;;11.47;100.00;101539.56;5109451;27;45265;-77
2022/03/10 10:33:22;;;;;;;;;30.00;23.25;;;;;10.82;100.00;101416.34;5114210;27;45337;-76
2022/03/10 10:35:47;;;;;;;;;27.25;24.25;;;;;11.55;100.00;101525.47;5124697;27;46013;-76
2022/03/10 10:38:29;;;;;;;;;25.25;22.00;;;;;11.29;100.00;101470.72;5112089;27;45439;-78
2022/03/10 10:41:16;;;;;;;;;25.25;24.00;;;;;11.65;100.00;101518.53;5109873;27;45698;-79
2022/03/10 10:43:43;;;;;;;;;25.50;25.25;;;;;11.68;100.00;101515.63;5109553;27;45156;-78
2022/03/10 10:46:20;;;;;;;;;25.50;22.75;;;;;11.70;100.00;101514.56;5109169;27;45194;-77
2022/03/10 10:48:50;;;;;;;;;28.25;25.75;;;;;11.35;100.00;101451.31;5120793;27;45206;-77
2022/03/10 10:51:34;;;;;;;;;25.25;22.50;;;;;11.71;100.00;101512.72;5119567;27;45299;-77
2022/03/10 10:54:02;;;;;;;;;24.00;23.00;;;;;11.34;100.00;101437.78;5110241;27;45210;-77
2022/03/10 10:56:28;;;;;;;;;23.75;22.50;;;;;11.74;100.00;101498.91;5126837;27;45646;-77
2022/03/10 10:58:54;;;;;;;;;20.00;17.25;;;;;11.76;100.00;101493.34;5114107;27;45298;-77
2022/03/10 11:01:31;;;;;;;;;28.25;21.50;;;;;11.22;100.00;101406.72;5127193;27;45174;-77
2022/03/10 11:03:57;;;;;;;;;28.25;25.75;;;;;11.57;100.00;101456.34;5128267;27;45407;-76
2022/03/10 11:06:23;;;;;;;;;25.50;21.50;;;;;10.71;100.00;101318.16;5114844;27;46516;-77
2022/03/10 11:08:49;;;;;;;;;23.50;20.50;;;;;11.77;100.00;101490.56;5108185;27;45788;-77